createdAt,value
2018-12-09T00:02:16.256Z,99016.27
2018-12-09T00:04:48.486Z,99013.48
2018-12-09T00:07:20.734Z,99003.52
2018-12-09T00:09:51.028Z,99002.11
2018-12-09T00:12:21.321Z,98996.41
2018-12-09T00:14:51.539Z,98992.78
2018-12-09T00:17:21.737Z,98995.28
2018-12-09T00:19:51.960Z,98990.48
2018-12-09T00:22:22.096Z,98985.30
2018-12-09T00:24:52.234Z,98978.16
2018-12-09T00:27:22.425Z,98972.45
2018-12-09T00:29:52.562Z,98971.39
2018-12-09T00:32:22.738Z,98972.83
2018-12-09T00:34:53.087Z,98963.00
2018-12-09T00:37:23.241Z,98958.23
2018-12-09T00:39:55.319Z,98954.80
2018-12-09T00:42:25.532Z,98932.13
2018-12-09T00:44:55.629Z,98927.78
2018-12-09T00:47:25.778Z,98929.47
2018-12-09T00:49:55.934Z,98925.31
2018-12-09T00:52:26.086Z,98917.74
2018-12-09T00:54:56.399Z,98927.66
2018-12-09T00:57:26.746Z,98924.13
2018-12-09T00:59:56.891Z,98917.19
2018-12-09T01:02:27.045Z,98919.48
2018-12-09T01:04:57.134Z,98912.45
2018-12-09T01:07:27.370Z,98903.02
2018-12-09T01:09:57.643Z,98893.89
2018-12-09T01:12:27.767Z,98888.48
2018-12-09T01:14:57.966Z,98882.88
2018-12-09T01:17:28.131Z,98873.31
2018-12-09T01:19:58.374Z,98868.61
2018-12-09T01:22:28.525Z,98866.37
2018-12-09T01:24:58.726Z,98857.93
2018-12-09T01:27:28.895Z,98855.50
2018-12-09T01:30:00.008Z,98842.11
2018-12-09T01:32:30.265Z,98833.31
2018-12-09T01:35:00.466Z,98822.63
2018-12-09T01:37:30.526Z,98818.33
2018-12-09T01:40:00.608Z,98817.02
2018-12-09T01:42:30.743Z,98813.70
2018-12-09T01:45:00.887Z,98798.15
2018-12-09T01:47:31.130Z,98791.63
2018-12-09T01:50:01.321Z,98780.23
2018-12-09T01:52:31.539Z,98763.03
2018-12-09T01:55:01.643Z,98766.06
2018-12-09T01:57:31.868Z,98765.06
2018-12-09T02:00:02.137Z,98750.14
2018-12-09T02:02:33.279Z,98743.77
2018-12-09T02:05:03.398Z,98741.44
2018-12-09T02:07:33.644Z,98732.56
2018-12-09T02:10:03.721Z,98718.38
2018-12-09T02:12:33.875Z,98719.39
2018-12-09T02:15:03.939Z,98706.84
2018-12-09T02:17:35.174Z,98692.94
2018-12-09T02:20:05.603Z,98692.95
2018-12-09T02:22:35.737Z,98676.70
2018-12-09T02:25:05.883Z,98681.56
2018-12-09T02:27:36.061Z,98666.14
2018-12-09T02:30:06.495Z,98660.78
2018-12-09T02:32:36.653Z,98659.11
2018-12-09T02:35:06.838Z,98652.56
2018-12-09T02:37:36.867Z,98649.89
2018-12-09T02:40:07.061Z,98640.33
2018-12-09T02:42:37.115Z,98639.45
2018-12-09T02:45:07.301Z,98635.09
2018-12-09T02:47:37.484Z,98637.44
2018-12-09T02:50:07.614Z,98636.27
2018-12-09T02:52:37.679Z,98630.73
2018-12-09T02:55:07.852Z,98619.48
2018-12-09T02:57:37.934Z,98611.59
2018-12-09T03:00:08.139Z,98606.89
2018-12-09T03:02:39.327Z,98597.83
2018-12-09T03:05:09.420Z,98592.80
2018-12-09T03:07:39.577Z,98582.38
2018-12-09T03:10:09.655Z,98571.80
2018-12-09T03:12:41.467Z,98571.97
2018-12-09T03:15:11.726Z,98563.43
2018-12-09T03:17:42.886Z,98562.43
2018-12-09T03:20:13.024Z,98556.38
2018-12-09T03:22:43.146Z,98551.38
2018-12-09T03:25:13.310Z,98543.84
2018-12-09T03:27:43.466Z,98550.06
2018-12-09T03:30:13.556Z,98533.12
2018-12-09T03:32:43.742Z,98531.61
2018-12-09T03:35:13.970Z,98522.55
2018-12-09T03:37:44.117Z,98521.38
2018-12-09T03:40:14.333Z,98519.70
2018-12-09T03:42:44.533Z,98515.32
2018-12-09T03:45:14.733Z,98509.95
2018-12-09T03:47:44.911Z,98511.62
2018-12-09T03:50:15.343Z,98513.48
2018-12-09T03:52:45.481Z,98508.79
2018-12-09T03:55:15.739Z,98496.52
2018-12-09T03:57:45.927Z,98485.81
2018-12-09T04:00:17.293Z,98482.02
2018-12-09T04:02:47.405Z,98476.77
2018-12-09T04:05:17.524Z,98461.50
2018-12-09T04:07:47.680Z,98455.45
2018-12-09T04:10:17.841Z,98449.55
2018-12-09T04:12:48.015Z,98443.34
2018-12-09T04:15:18.176Z,98430.23
2018-12-09T04:17:48.328Z,98425.69
2018-12-09T04:20:18.422Z,98420.69
2018-12-09T04:22:48.509Z,98407.75
2018-12-09T04:25:18.616Z,98401.39
2018-12-09T04:27:48.739Z,98396.84
2018-12-09T04:30:18.898Z,98395.98
2018-12-09T04:32:49.021Z,98381.91
2018-12-09T04:35:19.162Z,98373.17
2018-12-09T04:37:49.235Z,98371.16
2018-12-09T04:40:19.362Z,98361.09
2018-12-09T04:42:49.675Z,98350.00
2018-12-09T04:45:19.809Z,98349.49
2018-12-09T04:47:49.902Z,98334.22
2018-12-09T04:50:20.025Z,98335.20
2018-12-09T04:52:50.480Z,98329.34
2018-12-09T04:55:20.567Z,98329.31
2018-12-09T04:57:50.673Z,98329.81
2018-12-09T05:00:32.062Z,98323.44
2018-12-09T05:03:02.210Z,98322.01
2018-12-09T05:05:32.369Z,98315.45
2018-12-09T05:08:02.491Z,98303.66
2018-12-09T05:10:32.762Z,98311.54
2018-12-09T05:13:03.777Z,98329.73
2018-12-09T05:15:33.998Z,98323.50
2018-12-09T05:18:05.150Z,98322.16
2018-12-09T05:20:35.255Z,98330.34
2018-12-09T05:23:05.610Z,98325.06
2018-12-09T05:25:35.718Z,98316.16
2018-12-09T05:28:05.872Z,98301.61
2018-12-09T05:30:35.951Z,98292.14
2018-12-09T05:33:06.503Z,98289.81
2018-12-09T05:35:36.646Z,98287.96
2018-12-09T05:38:06.742Z,98294.50
2018-12-09T05:40:36.953Z,98286.44
2018-12-09T05:43:07.047Z,98294.53
2018-12-09T05:45:37.150Z,98292.46
2018-12-09T05:48:07.260Z,98289.48
2018-12-09T05:50:37.459Z,98291.05
2018-12-09T05:53:07.754Z,98286.55
2018-12-09T05:55:44.541Z,98281.50
2018-12-09T05:58:16.656Z,98272.05
2018-12-09T06:00:46.880Z,98277.10
2018-12-09T06:03:20.444Z,98279.20
2018-12-09T06:05:50.615Z,98288.17
2018-12-09T06:08:20.874Z,98281.16
2018-12-09T06:10:51.129Z,98283.38
2018-12-09T06:13:21.411Z,98281.86
2018-12-09T06:15:51.728Z,98277.36
2018-12-09T06:18:23.081Z,98281.64
2018-12-09T06:20:55.497Z,98275.55
2018-12-09T06:23:25.886Z,98268.67
2018-12-09T06:25:56.192Z,98269.19
2018-12-09T06:28:26.430Z,98271.77
2018-12-09T06:30:56.666Z,98268.06
2018-12-09T06:33:26.884Z,98260.88
2018-12-09T06:35:57.030Z,98252.34
2018-12-09T06:38:27.169Z,98249.11
2018-12-09T06:40:57.398Z,98248.78
2018-12-09T06:43:27.650Z,98255.83
2018-12-09T06:45:58.328Z,98258.44
2018-12-09T06:48:28.494Z,98254.08
2018-12-09T06:50:58.623Z,98251.58
2018-12-09T06:53:28.831Z,98248.20
2018-12-09T06:55:59.929Z,98245.76
2018-12-09T06:58:30.092Z,98248.13
2018-12-09T07:01:00.194Z,98244.23
2018-12-09T07:03:30.370Z,98244.05
2018-12-09T07:06:00.462Z,98250.14
2018-12-09T07:08:31.061Z,98238.23
2018-12-09T07:11:01.222Z,98243.84
2018-12-09T07:13:31.268Z,98248.81
2018-12-09T07:16:01.425Z,98250.11
2018-12-09T07:18:31.481Z,98250.63
2018-12-09T07:21:01.553Z,98246.45
2018-12-09T07:23:31.607Z,98252.67
2018-12-09T07:26:02.012Z,98245.25
2018-12-09T07:28:32.835Z,98246.84
2018-12-09T07:47:40.678Z,98254.97
2018-12-09T07:50:11.060Z,98254.02
2018-12-09T07:52:41.905Z,98262.46
2018-12-09T07:55:12.398Z,98264.60
2018-12-09T07:57:42.767Z,98259.16
2018-12-09T08:00:13.009Z,98259.70
2018-12-09T08:02:47.960Z,98271.49
2018-12-09T08:05:24.692Z,98257.92
2018-12-09T08:08:02.399Z,98259.20
2018-12-09T08:10:34.376Z,98261.78
2018-12-09T08:13:18.153Z,98263.06
2018-12-09T08:15:48.504Z,98258.25
2018-12-09T08:18:27.816Z,98258.77
2018-12-09T08:21:02.183Z,98269.93
2018-12-09T08:23:32.443Z,98275.64
2018-12-09T08:26:02.717Z,98271.34
2018-12-09T08:28:32.863Z,98275.70
2018-12-09T08:31:02.929Z,98278.59
2018-12-09T08:33:33.204Z,98286.87
2018-12-09T08:36:03.313Z,98285.00
2018-12-09T08:38:33.502Z,98290.33
2018-12-09T08:41:03.832Z,98291.74
2018-12-09T08:43:34.097Z,98298.22
2018-12-09T08:46:04.325Z,98294.77
2018-12-09T08:48:34.597Z,98301.31
2018-12-09T08:51:04.908Z,98299.77
2018-12-09T08:53:35.161Z,98300.02
2018-12-09T08:56:05.634Z,98304.52
2018-12-09T08:58:35.961Z,98309.78
2018-12-09T09:01:06.265Z,98313.56
2018-12-09T09:03:36.531Z,98314.20
2018-12-09T09:06:07.066Z,98320.69
2018-12-09T09:08:37.265Z,98319.98
2018-12-09T09:11:07.547Z,98327.48
2018-12-09T09:13:38.411Z,98318.63
2018-12-09T09:16:08.723Z,98318.17
2018-12-09T09:18:39.526Z,98317.83
2018-12-09T09:21:09.686Z,98319.42
2018-12-09T09:23:39.852Z,98318.59
2018-12-09T09:26:10.062Z,98312.88
2018-12-09T09:28:40.322Z,98314.56
2018-12-09T09:31:10.634Z,98317.64
2018-12-09T09:33:40.737Z,98308.67
2018-12-09T09:36:10.793Z,98312.84
2018-12-09T09:38:40.878Z,98323.75
2018-12-09T09:41:11.018Z,98317.53
2018-12-09T09:43:41.090Z,98317.67
2018-12-09T09:46:11.251Z,98313.75
2018-12-09T09:48:41.521Z,98309.45
2018-12-09T09:51:12.336Z,98315.75
2018-12-09T09:53:42.453Z,98318.70
2018-12-09T09:56:13.366Z,98323.31
2018-12-09T09:58:43.617Z,98331.08
2018-12-09T10:01:14.367Z,98326.72
2018-12-09T10:03:44.443Z,98332.67
2018-12-09T10:06:14.574Z,98332.75
2018-12-09T10:08:44.771Z,98330.11
2018-12-09T10:11:14.958Z,98336.15
2018-12-09T10:13:45.437Z,98334.92
2018-12-09T10:16:15.623Z,98342.02
2018-12-09T10:18:45.980Z,98347.44
2018-12-09T10:21:16.319Z,98346.90
2018-12-09T10:23:46.629Z,98334.33
2018-12-09T10:26:16.731Z,98347.84
2018-12-09T10:28:46.972Z,98351.36
2018-12-09T10:31:17.239Z,98359.58
2018-12-09T10:33:47.374Z,98354.06
2018-12-09T10:36:17.520Z,98355.82
2018-12-09T10:38:54.639Z,98362.59
2018-12-09T10:41:24.849Z,98370.71
2018-12-09T10:43:55.252Z,98374.18
2018-12-09T10:46:25.764Z,98382.48
2018-12-09T10:48:56.237Z,98386.98
2018-12-09T10:51:26.710Z,98395.38
2018-12-09T10:53:57.240Z,98402.14
2018-12-09T10:56:31.724Z,98402.51
2018-12-09T10:59:02.065Z,98403.81
2018-12-09T11:01:40.620Z,98400.43
2018-12-09T11:04:11.364Z,98399.64
2018-12-09T11:06:45.083Z,98401.37
2018-12-09T11:09:17.848Z,98405.41
2018-12-09T11:11:49.248Z,98409.59
2018-12-09T11:14:19.771Z,98412.56
2018-12-09T11:16:50.710Z,98423.55
2018-12-09T11:19:21.066Z,98416.17
2018-12-09T11:21:52.237Z,98421.41
2018-12-09T11:24:22.611Z,98421.91
2018-12-09T11:26:58.739Z,98424.97
2018-12-09T11:29:29.283Z,98425.95
2018-12-09T11:31:59.593Z,98433.33
2018-12-09T11:34:29.876Z,98425.16
2018-12-09T11:37:00.310Z,98425.27
2018-12-09T11:39:30.730Z,98428.93
2018-12-09T11:42:01.106Z,98425.73
2018-12-09T11:44:32.325Z,98431.25
2018-12-09T11:47:03.003Z,98430.28
2018-12-09T11:49:33.531Z,98429.44
2018-12-09T11:52:04.296Z,98429.87
2018-12-09T11:57:28.554Z,98434.70
2018-12-09T12:00:03.355Z,98435.68
2018-12-09T12:06:54.628Z,98439.35
2018-12-09T12:12:10.679Z,98445.48
2018-12-09T12:14:41.960Z,98441.63
2018-12-09T12:17:29.639Z,98451.70
2018-12-09T12:20:01.425Z,98451.70
2018-12-09T12:22:32.943Z,98455.93
2018-12-09T12:25:12.799Z,98456.34
2018-12-09T12:27:43.018Z,98453.70
2018-12-09T12:30:39.298Z,98456.77
2018-12-09T12:33:11.416Z,98460.09
2018-12-09T12:35:53.066Z,98460.48
2018-12-09T12:38:23.263Z,98471.50
2018-12-09T12:41:00.185Z,98475.22
2018-12-09T12:43:31.206Z,98484.52
2018-12-09T12:46:16.404Z,98484.87
2018-12-09T12:48:47.189Z,98493.28
2018-12-09T12:51:19.627Z,98491.45
2018-12-09T12:53:49.901Z,98496.51
2018-12-09T12:56:20.253Z,98501.92
2018-12-09T12:58:51.765Z,98505.63
2018-12-09T13:01:22.586Z,98500.39
2018-12-09T13:03:53.068Z,98507.15
2018-12-09T13:06:23.976Z,98500.48
2018-12-09T13:08:54.192Z,98509.59
2018-12-09T13:11:24.753Z,98513.94
2018-12-09T13:13:55.181Z,98514.44
2018-12-09T13:16:25.638Z,98525.98
2018-12-09T13:18:56.109Z,98530.31
2018-12-09T13:21:27.605Z,98530.31
2018-12-09T13:23:58.564Z,98533.42
2018-12-09T13:26:28.738Z,98541.64
2018-12-09T13:28:59.087Z,98544.19
2018-12-09T13:31:30.316Z,98544.90
2018-12-09T13:34:00.679Z,98549.11
2018-12-09T13:36:30.986Z,98550.16
2018-12-09T13:39:02.105Z,98552.84
2018-12-09T13:41:33.738Z,98550.31
2018-12-09T13:44:05.116Z,98561.25
2018-12-09T13:46:35.524Z,98560.02
2018-12-09T13:49:05.859Z,98563.91
2018-12-09T13:51:36.625Z,98569.72
2018-12-09T13:54:12.906Z,98574.91
2018-12-09T13:56:48.171Z,98575.91
2018-12-09T13:59:18.389Z,98575.45
2018-12-09T14:01:49.966Z,98576.62
2018-12-09T14:04:20.428Z,98584.23
2018-12-09T14:06:50.891Z,98579.34
2018-12-09T14:09:21.205Z,98594.81
2018-12-09T14:11:51.374Z,98601.55
2018-12-09T14:14:21.657Z,98599.81
2018-12-09T14:16:53.132Z,98604.54
2018-12-09T14:19:25.728Z,98606.39
2018-12-09T14:21:58.226Z,98605.23
2018-12-09T14:24:28.613Z,98605.88
2018-12-09T14:26:58.838Z,98613.64
2018-12-09T14:29:29.064Z,98616.69
2018-12-09T14:31:59.939Z,98608.46
2018-12-09T14:34:30.183Z,98612.71
2018-12-09T14:37:01.343Z,98614.25
2018-12-09T14:39:35.657Z,98620.38
2018-12-09T14:42:07.689Z,98623.91
2018-12-09T14:44:38.904Z,98616.23
2018-12-09T14:47:11.218Z,98622.63
2018-12-09T14:49:55.007Z,98623.88
2018-12-09T14:52:26.689Z,98624.50
2018-12-09T14:54:59.170Z,98625.24
2018-12-09T14:57:29.611Z,98629.45
2018-12-09T15:00:00.427Z,98624.09
2018-12-09T15:02:30.998Z,98636.17
2018-12-09T15:05:02.658Z,98635.72
2018-12-09T15:07:33.046Z,98638.75
2018-12-09T15:10:31.548Z,98645.96
2018-12-09T15:13:03.041Z,98648.81
2018-12-09T15:15:33.605Z,98648.64
2018-12-09T15:18:07.502Z,98653.52
2018-12-09T15:20:38.380Z,98653.34
2018-12-09T15:23:08.781Z,98660.39
2018-12-09T15:25:40.123Z,98657.05
2018-12-09T15:28:20.714Z,98666.79
2018-12-09T15:30:51.047Z,98667.46
2018-12-09T15:40:11.683Z,98679.88
2018-12-09T16:16:06.501Z,98710.27
2018-12-09T16:18:54.941Z,98714.13
2018-12-09T16:21:30.191Z,98717.66
2018-12-09T16:24:02.065Z,98722.02
2018-12-09T16:26:32.235Z,98716.22
2018-12-09T16:29:02.592Z,98718.13
2018-12-09T16:31:32.731Z,98717.97
2018-12-09T16:34:06.362Z,98725.36
2018-12-09T16:36:37.438Z,98724.69
2018-12-09T16:39:08.323Z,98726.88
2018-12-09T16:41:39.556Z,98723.02
2018-12-09T16:44:09.771Z,98734.76
2018-12-09T16:46:40.782Z,98735.28
2018-12-09T16:52:15.254Z,98735.28
2018-12-09T16:54:45.741Z,98739.81
2018-12-09T16:57:16.193Z,98740.98
2018-12-09T16:59:47.720Z,98744.35
2018-12-09T17:02:22.626Z,98751.41
2018-12-09T17:04:53.038Z,98749.05
2018-12-09T17:07:24.143Z,98755.94
2018-12-09T17:09:54.217Z,98760.47
2018-12-09T17:12:24.435Z,98756.43
2018-12-09T17:14:54.590Z,98761.48
2018-12-09T17:17:25.020Z,98760.98
2018-12-09T17:19:55.445Z,98757.45
2018-12-09T17:22:26.525Z,98763.16
2018-12-09T17:24:56.980Z,98769.88
2018-12-09T17:27:28.242Z,98776.77
2018-12-09T17:29:58.599Z,98779.28
2018-12-09T17:32:29.333Z,98779.63
2018-12-09T17:34:59.925Z,98776.44
2018-12-09T17:37:30.479Z,98780.77
2018-12-09T17:40:02.185Z,98785.01
2018-12-09T17:42:34.187Z,98789.45
2018-12-09T17:45:04.554Z,98786.31
2018-12-09T17:47:34.759Z,98788.03
2018-12-09T17:50:04.937Z,98797.09
2018-12-09T17:52:35.114Z,98797.26
2018-12-09T17:55:05.229Z,98803.14
2018-12-09T17:57:35.362Z,98794.41
2018-12-09T18:00:06.301Z,98796.75
2018-12-09T18:02:36.697Z,98803.30
2018-12-09T18:05:07.038Z,98804.31
2018-12-09T18:07:37.249Z,98805.66
2018-12-09T18:10:07.418Z,98808.17
2018-12-09T18:12:37.546Z,98817.08
2018-12-09T18:15:11.668Z,98805.16
2018-12-09T18:17:41.776Z,98811.53
2018-12-09T18:20:11.960Z,98815.06
2018-12-09T18:22:41.998Z,98815.91
2018-12-09T18:25:12.217Z,98815.56
2018-12-09T18:27:43.451Z,98818.92
2018-12-09T18:30:13.751Z,98824.97
2018-12-09T18:32:43.889Z,98819.59
2018-12-09T18:35:14.167Z,98829.17
2018-12-09T18:37:44.332Z,98830.18
2018-12-09T18:40:14.474Z,98836.90
2018-12-09T18:42:44.650Z,98829.17
2018-12-09T18:45:14.758Z,98836.39
2018-12-09T18:47:45.060Z,98840.76
2018-12-09T18:50:15.207Z,98846.13
2018-12-09T18:52:45.426Z,98848.48
2018-12-09T18:55:15.531Z,98847.48
2018-12-09T18:57:45.767Z,98851.01
2018-12-09T19:00:15.949Z,98860.25
2018-12-09T19:02:46.122Z,98858.91
2018-12-09T19:05:16.238Z,98854.70
2018-12-09T19:07:46.423Z,98848.48
2018-12-09T19:10:16.536Z,98849.50
2018-12-09T19:12:47.887Z,98852.52
2018-12-09T19:15:18.069Z,98855.20
2018-12-09T19:17:48.193Z,98860.91
2018-12-09T19:20:18.264Z,98859.40
2018-12-09T19:22:49.485Z,98865.23
2018-12-09T19:25:19.590Z,98862.88
2018-12-09T19:27:50.872Z,98869.77
2018-12-09T19:30:20.967Z,98869.30
2018-12-09T19:32:51.254Z,98871.48
2018-12-09T19:35:21.367Z,98872.33
2018-12-09T19:37:51.563Z,98874.02
2018-12-09T19:40:21.663Z,98879.73
2018-12-09T19:42:51.865Z,98870.31
2018-12-09T19:45:22.010Z,98875.86
2018-12-09T19:47:52.185Z,98876.70
2018-12-09T19:50:22.271Z,98880.41
2018-12-09T19:52:52.450Z,98879.05
2018-12-09T19:55:22.786Z,98877.38
2018-12-09T19:57:53.207Z,98879.56
2018-12-09T20:00:23.482Z,98886.96
2018-12-09T20:02:53.691Z,98878.89
2018-12-09T20:05:23.950Z,98885.95
2018-12-09T20:07:54.130Z,98878.72
2018-12-09T20:10:24.212Z,98879.56
2018-12-09T20:12:54.397Z,98874.02
2018-12-09T20:15:24.474Z,98884.42
2018-12-09T20:17:54.621Z,98879.39
2018-12-09T20:20:24.707Z,98879.89
2018-12-09T20:22:55.202Z,98874.84
2018-12-09T20:25:25.309Z,98872.32
2018-12-09T20:27:55.446Z,98875.52
2018-12-09T20:30:25.630Z,98878.54
2018-12-09T20:32:55.773Z,98879.05
2018-12-09T20:35:25.905Z,98875.86
2018-12-09T20:37:55.996Z,98889.63
2018-12-09T20:40:26.171Z,98881.07
2018-12-09T20:42:56.280Z,98882.41
2018-12-09T20:45:27.350Z,98889.63
2018-12-09T20:48:01.281Z,98891.64
2018-12-09T20:50:31.691Z,98903.58
2018-12-09T20:53:01.795Z,98904.75
2018-12-09T20:55:31.919Z,98899.55
2018-12-09T20:58:02.019Z,98900.21
2018-12-09T21:00:33.087Z,98901.89
2018-12-09T21:03:03.236Z,98895.34
2018-12-09T21:05:33.439Z,98905.76
2018-12-09T21:08:03.677Z,98911.47
2018-12-09T21:10:33.755Z,98905.42
2018-12-09T21:13:03.951Z,98900.88
2018-12-09T21:15:34.293Z,98896.17
2018-12-09T21:18:04.539Z,98901.21
2018-12-09T21:20:34.732Z,98897.69
2018-12-09T21:23:04.975Z,98911.97
2018-12-09T21:25:35.204Z,98901.05
2018-12-09T21:28:05.423Z,98909.95
2018-12-09T21:30:50.768Z,98916.16
2018-12-09T21:33:21.012Z,98907.10
2018-12-09T21:35:51.358Z,98917.34
2018-12-09T21:38:21.639Z,98921.03
2018-12-09T21:40:51.942Z,98921.36
2018-12-09T21:43:22.215Z,98923.03
2018-12-09T21:45:52.496Z,98924.73
2018-12-09T21:48:22.829Z,98926.58
2018-12-09T21:50:53.083Z,98929.27
2018-12-09T21:53:23.685Z,98938.51
2018-12-09T21:55:54.012Z,98943.55
2018-12-09T21:58:25.483Z,98949.26
2018-12-09T22:00:56.940Z,98954.63
2018-12-09T22:03:27.363Z,98970.08
2018-12-09T22:05:57.718Z,98964.86
2018-12-09T22:08:27.918Z,98974.27
2018-12-09T22:10:58.082Z,98977.63
2018-12-09T22:13:28.446Z,98981.09
2018-12-09T22:15:58.778Z,98980.47
2018-12-09T22:18:29.149Z,98991.55
2018-12-09T22:20:59.354Z,98988.16
2018-12-09T22:23:29.512Z,98989.20
2018-12-09T22:26:00.289Z,98993.34
2018-12-09T22:28:30.419Z,98998.19
2018-12-09T22:31:00.626Z,98992.67
2018-12-09T22:33:30.806Z,98996.02
2018-12-09T22:36:01.057Z,98994.16
2018-12-09T22:38:31.268Z,99003.88
2018-12-09T22:41:01.486Z,99011.96
2018-12-09T22:43:31.721Z,99018.66
2018-12-09T22:46:06.306Z,99045.66
2018-12-09T22:48:36.563Z,99065.45
2018-12-09T22:51:06.814Z,99047.10
2018-12-09T22:53:37.014Z,99035.31
2018-12-09T22:56:07.308Z,99049.05
2018-12-09T22:58:37.626Z,99047.38
2018-12-09T23:01:13.045Z,99042.00
2018-12-09T23:03:43.379Z,99042.70
2018-12-09T23:06:13.534Z,99046.69
2018-12-09T23:08:43.747Z,99051.92
2018-12-09T23:11:13.989Z,99051.77
2018-12-09T23:13:44.163Z,99039.16
2018-12-09T23:16:14.401Z,99052.27
2018-12-09T23:18:44.705Z,99052.45
2018-12-09T23:21:15.078Z,99056.84
2018-12-09T23:23:45.346Z,99053.36
2018-12-09T23:26:15.711Z,99057.70
2018-12-09T23:28:45.836Z,99059.37
2018-12-09T23:31:15.968Z,99056.73
2018-12-09T23:33:46.151Z,99063.60
2018-12-09T23:36:16.325Z,99069.27
2018-12-09T23:38:46.545Z,99074.11
2018-12-09T23:41:16.667Z,99073.77
2018-12-09T23:43:46.806Z,99074.95
2018-12-09T23:46:16.979Z,99076.83
2018-12-09T23:48:47.225Z,99077.64
2018-12-09T23:51:17.305Z,99082.86
2018-12-09T23:53:47.532Z,99087.38
2018-12-09T23:56:17.650Z,99090.56
2018-12-09T23:58:47.827Z,99093.41
